createdAt,value
2022-11-14T00:04:46.730Z,99.90
2022-11-14T00:15:02.426Z,99.90
2022-11-14T00:25:18.365Z,99.90
2022-11-14T00:35:34.292Z,99.90
2022-11-14T00:45:50.149Z,99.90
2022-11-14T00:56:05.785Z,99.90
2022-11-14T01:06:21.346Z,99.90
2022-11-14T01:16:36.752Z,99.90
2022-11-14T01:26:58.137Z,99.90
2022-11-14T01:37:13.778Z,99.90
2022-11-14T01:47:33.649Z,99.90
2022-11-14T01:57:50.216Z,99.90
2022-11-14T02:08:06.278Z,99.90
2022-11-14T02:18:21.601Z,99.90
2022-11-14T02:28:37.512Z,99.90
2022-11-14T02:38:52.866Z,99.90
2022-11-14T02:49:08.243Z,99.90
2022-11-14T08:36:11.699Z,99.90
2022-11-14T08:46:27.208Z,99.90
2022-11-14T08:56:43.127Z,99.90
2022-11-14T09:06:59.299Z,96.40
2022-11-14T09:17:15.205Z,97.50
2022-11-14T09:27:31.174Z,85.50
2022-11-14T09:37:47.067Z,85.60
2022-11-14T09:48:12.912Z,88.00
2022-11-14T09:58:29.475Z,86.20
2022-11-14T10:09:14.432Z,87.70
2022-11-14T10:19:46.988Z,87.10
2022-11-14T10:30:19.680Z,89.40
2022-11-14T10:40:48.149Z,83.60
2022-11-14T10:51:27.554Z,83.90
2022-11-14T11:01:58.825Z,85.20
2022-11-14T11:12:20.879Z,78.60
2022-11-14T11:22:38.779Z,79.20
2022-11-14T11:32:54.437Z,72.90
2022-11-14T11:43:42.883Z,75.00
2022-11-14T11:54:07.412Z,69.60
2022-11-14T12:04:23.044Z,67.80
2022-11-14T12:14:47.957Z,71.80
2022-11-14T12:25:38.590Z,73.40
2022-11-14T12:35:58.663Z,75.00
2022-11-14T12:46:14.639Z,79.10
2022-11-14T12:56:33.381Z,79.70
2022-11-14T13:06:55.271Z,82.70
2022-11-14T13:17:35.696Z,83.60
2022-11-14T13:28:18.862Z,82.50
2022-11-14T13:39:05.397Z,88.70
2022-11-14T13:49:30.217Z,88.30
2022-11-14T13:59:55.011Z,90.90
2022-11-14T14:10:41.525Z,91.50
2022-11-14T14:21:22.443Z,94.70
2022-11-14T14:31:41.446Z,96.00
2022-11-14T14:41:58.818Z,92.50
2022-11-14T14:52:37.107Z,94.50
2022-11-14T15:02:54.977Z,97.20
2022-11-14T15:13:17.764Z,99.90
